Time;durP1;ratioP1;P1;durP2;ratioP2;P2;SDS_P1;SDS_P2;PMS_P1;PMS_P2;Temp;Humidity;BMP_temperature;BMP_pressure;BME280_temperature;BME280_humidity;BME280_pressure;Samples;Min_cycle;Max_cycle;Signal;HPM_P1;HPM_P2
2022/10/30 00:00:10;;;;;;;;;;;21.80;38.50;;;;;;5112306;28;19919;-66
2022/10/30 00:02:37;;;;;;;;;;;21.80;38.60;;;;;;5106238;28;20451;-65
2022/10/30 00:05:03;;;;;;;;;;;21.80;37.00;;;;;;5108925;28;19915;-65
2022/10/30 00:07:30;;;;;;;;;;;21.80;38.90;;;;;;5110377;28;19942;-66
2022/10/30 00:09:56;;;;;;;;;;;21.80;39.20;;;;;;5104015;28;19916;-66
2022/10/30 00:12:23;;;;;;;;;;;21.80;38.40;;;;;;5109036;27;20007;-69
2022/10/30 00:14:50;;;;;;;;;;;21.90;37.70;;;;;;5105680;27;20022;-65
2022/10/30 00:19:56;;;;;;;;;;;21.90;39.00;;;;;;5110289;27;20453;-65
2022/10/30 00:22:23;;;;;;;;;;;21.90;40.30;;;;;;5117974;27;19923;-66
2022/10/30 00:24:49;;;;;;;;;;;22.00;39.70;;;;;;5115210;27;19907;-64
2022/10/30 00:27:16;;;;;;;;;;;21.90;38.50;;;;;;5126009;27;19919;-65
2022/10/30 00:29:42;;;;;;;;;;;22.00;38.10;;;;;;5120929;27;19992;-64
2022/10/30 00:32:09;;;;;;;;;;;22.00;39.40;;;;;;5112434;27;19923;-64
2022/10/30 00:34:36;;;;;;;;;;;22.10;39.20;;;;;;5133165;27;19907;-64
2022/10/30 00:37:02;;;;;;;;;;;22.00;39.00;;;;;;5120013;27;19942;-65
2022/10/30 00:39:29;;;;;;;;;;;22.00;39.00;;;;;;5115604;27;19946;-66
2022/10/30 00:41:55;;;;;;;;;;;22.00;39.20;;;;;;5131356;27;19959;-65
2022/10/30 00:44:40;;;;;;;;;;;22.00;39.60;;;;;;5119889;27;20361;-67
2022/10/30 00:47:11;;;;;;;;;;;22.00;39.80;;;;;;5119304;27;19923;-65
2022/10/30 00:49:38;;;;;;;;;;;22.00;37.40;;;;;;5088208;28;19916;-66
2022/10/30 00:52:05;;;;;;;;;;;22.00;38.70;;;;;;5092384;28;19950;-65
2022/10/30 00:54:32;;;;;;;;;;;22.00;38.90;;;;;;5109620;27;19942;-65
2022/10/30 00:57:00;;;;;;;;;;;22.00;39.00;;;;;;5105535;27;19946;-65
2022/10/30 00:59:27;;;;;;;;;;;22.10;39.10;;;;;;5097099;27;20266;-65
2022/10/30 01:01:54;;;;;;;;;;;22.10;40.20;;;;;;5118554;27;20351;-66
2022/10/30 01:04:21;;;;;;;;;;;22.10;40.10;;;;;;5114501;27;19917;-66
2022/10/30 01:06:48;;;;;;;;;;;22.20;40.10;;;;;;5103834;27;19928;-66
2022/10/30 01:09:14;;;;;;;;;;;22.10;39.60;;;;;;5097144;27;20366;-67
2022/10/30 01:11:41;;;;;;;;;;;22.10;40.00;;;;;;5114027;27;20007;-66
2022/10/30 01:14:08;;;;;;;;;;;22.10;40.10;;;;;;5118691;27;20408;-65
2022/10/30 01:16:38;;;;;;;;;;;22.10;42.00;;;;;;5114528;27;19945;-66
2022/10/30 01:19:25;;;;;;;;;;;22.10;42.40;;;;;;5125483;27;19927;-66
2022/10/30 01:22:11;;;;;;;;;;;22.10;43.80;;;;;;5108181;27;19916;-66
2022/10/30 01:24:56;;;;;;;;;;;22.10;43.20;;;;;;5106184;27;19985;-65
2022/10/30 01:27:38;;;;;;;;;;;22.10;44.20;;;;;;5124923;27;20285;-65
2022/10/30 01:30:23;;;;;;;;;;;22.10;43.20;;;;;;5086576;28;19918;-66
2022/10/30 01:33:07;;;;;;;;;;;22.00;43.10;;;;;;5104419;27;19972;-65
2022/10/30 01:35:40;;;;;;;;;;;22.00;43.70;;;;;;5131850;27;19966;-67
2022/10/30 01:38:11;;;;;;;;;;;22.00;41.80;;;;;;5131855;27;20379;-68
2022/10/30 01:40:38;;;;;;;;;;;22.00;44.30;;;;;;5087256;28;20007;-68
2022/10/30 01:43:05;;;;;;;;;;;22.00;45.30;;;;;;5107749;22;20314;-70
2022/10/30 01:45:49;;;;;;;;;;;21.90;43.90;;;;;;5069185;28;20007;-69
2022/10/30 01:48:36;;;;;;;;;;;21.90;45.20;;;;;;5085415;28;19912;-70
2022/10/30 01:51:12;;;;;;;;;;;21.80;46.20;;;;;;5077921;28;19961;-71
2022/10/30 01:53:48;;;;;;;;;;;21.80;46.80;;;;;;5084792;28;19915;-69
2022/10/30 01:56:26;;;;;;;;;;;21.80;48.20;;;;;;5113595;28;19967;-69
2022/10/30 01:59:02;;;;;;;;;;;21.80;48.10;;;;;;5107978;28;19919;-70
2022/10/30 02:01:30;;;;;;;;;;;21.80;47.50;;;;;;5111402;28;20293;-69
2022/10/30 02:03:56;;;;;;;;;;;21.80;47.60;;;;;;5081074;28;20392;-72
2022/10/30 02:06:23;;;;;;;;;;;21.80;48.00;;;;;;5109961;28;19908;-73
2022/10/30 02:08:49;;;;;;;;;;;21.90;48.50;;;;;;5108961;28;20393;-72
2022/10/30 02:11:16;;;;;;;;;;;21.80;46.80;;;;;;5098755;28;19982;-72
2022/10/30 02:13:42;;;;;;;;;;;21.80;48.10;;;;;;5073360;28;19969;-74
2022/10/30 02:16:09;;;;;;;;;;;21.70;46.80;;;;;;5093270;28;20345;-72
2022/10/30 02:18:36;;;;;;;;;;;21.60;46.20;;;;;;5093462;28;20006;-73
2022/10/30 02:21:02;;;;;;;;;;;21.60;47.40;;;;;;5074427;28;19967;-72
2022/10/30 02:23:30;;;;;;;;;;;21.60;46.00;;;;;;5063130;28;19961;-72
2022/10/30 02:25:56;;;;;;;;;;;21.40;46.50;;;;;;5073821;28;19912;-71
2022/10/30 02:28:23;;;;;;;;;;;21.30;44.70;;;;;;5092723;28;19997;-70
2022/10/30 02:30:49;;;;;;;;;;;21.30;45.70;;;;;;5092423;28;20354;-71
2022/10/30 02:33:16;;;;;;;;;;;21.40;46.40;;;;;;5081592;28;19912;-73
2022/10/30 02:35:43;;;;;;;;;;;21.40;46.60;;;;;;5092393;28;19926;-71
2022/10/30 02:38:09;;;;;;;;;;;21.50;47.70;;;;;;5104136;28;19923;-74
2022/10/30 02:40:36;;;;;;;;;;;21.50;47.70;;;;;;5102204;28;20377;-73
2022/10/30 02:43:02;;;;;;;;;;;21.50;48.20;;;;;;5103916;27;19959;-73
2022/10/30 02:45:29;;;;;;;;;;;21.50;48.30;;;;;;5094093;28;20006;-73
2022/10/30 02:47:55;;;;;;;;;;;21.60;47.40;;;;;;5090475;28;19951;-74
2022/10/30 02:50:22;;;;;;;;;;;21.60;47.30;;;;;;5085380;28;19916;-72
2022/10/30 02:52:49;;;;;;;;;;;21.60;46.60;;;;;;5094188;28;20312;-73
2022/10/30 02:55:15;;;;;;;;;;;21.60;48.20;;;;;;5084448;28;19920;-71
2022/10/30 02:57:42;;;;;;;;;;;21.60;47.00;;;;;;5099731;28;20010;-72
2022/10/30 03:00:09;;;;;;;;;;;21.60;48.80;;;;;;5095529;28;19974;-73
2022/10/30 03:02:35;;;;;;;;;;;21.50;48.10;;;;;;5092640;28;19981;-73
2022/10/30 03:05:02;;;;;;;;;;;21.30;48.50;;;;;;5096992;28;19908;-73
2022/10/30 03:07:28;;;;;;;;;;;21.30;49.80;;;;;;5100129;28;19912;-72
2022/10/30 03:09:55;;;;;;;;;;;21.30;49.80;;;;;;5088553;28;19909;-72
2022/10/30 03:12:22;;;;;;;;;;;21.20;49.70;;;;;;5088757;28;19916;-69
2022/10/30 03:14:48;;;;;;;;;;;21.20;50.80;;;;;;5070668;28;19913;-68
2022/10/30 03:17:15;;;;;;;;;;;21.20;51.40;;;;;;5103183;28;19969;-69
2022/10/30 03:19:42;;;;;;;;;;;21.30;50.70;;;;;;5106042;28;20006;-68
2022/10/30 03:22:08;;;;;;;;;;;21.30;51.20;;;;;;5087346;28;19912;-67
2022/10/30 03:24:35;;;;;;;;;;;21.30;49.30;;;;;;5105630;28;19958;-67
2022/10/30 03:27:01;;;;;;;;;;;21.30;49.70;;;;;;5091753;28;19963;-67
2022/10/30 03:29:28;;;;;;;;;;;21.30;50.40;;;;;;5107137;28;19966;-67
2022/10/30 03:31:55;;;;;;;;;;;21.30;50.90;;;;;;5106169;28;19920;-67
2022/10/30 03:34:22;;;;;;;;;;;21.40;50.20;;;;;;5098730;28;20425;-68
2022/10/30 03:36:48;;;;;;;;;;;21.40;51.60;;;;;;5091593;28;19931;-67
2022/10/30 03:39:15;;;;;;;;;;;21.40;49.90;;;;;;5107557;28;19926;-68
2022/10/30 03:41:42;;;;;;;;;;;21.30;49.40;;;;;;5088100;28;19999;-67
2022/10/30 04:15:55;;;;;;;;;;;21.00;49.20;;;;;;5130543;27;20406;-67
2022/10/30 04:18:22;;;;;;;;;;;21.00;50.30;;;;;;5154104;27;20283;-68
2022/10/30 04:20:48;;;;;;;;;;;21.00;51.80;;;;;;5148122;27;19954;-68
2022/10/30 04:23:16;;;;;;;;;;;21.00;51.50;;;;;;5145324;27;19915;-68
2022/10/30 04:25:42;;;;;;;;;;;21.00;51.60;;;;;;5145436;27;19907;-68
2022/10/30 04:28:09;;;;;;;;;;;21.00;52.30;;;;;;5154116;27;20288;-68
2022/10/30 04:30:37;;;;;;;;;;;20.90;51.50;;;;;;5151867;27;19907;-68
2022/10/30 04:33:04;;;;;;;;;;;21.00;53.10;;;;;;5140964;27;19911;-68
2022/10/30 04:35:31;;;;;;;;;;;21.10;54.30;;;;;;5136799;27;20365;-68
2022/10/30 04:38:01;;;;;;;;;;;21.20;54.40;;;;;;5135318;27;19915;-67
2022/10/30 04:40:29;;;;;;;;;;;21.20;52.30;;;;;;5144292;27;19998;-68
2022/10/30 04:42:55;;;;;;;;;;;21.20;53.70;;;;;;5147940;27;19964;-68
2022/10/30 04:45:22;;;;;;;;;;;21.20;53.60;;;;;;5128379;27;19915;-67
2022/10/30 04:47:49;;;;;;;;;;;21.20;52.30;;;;;;5148790;27;20792;-68
2022/10/30 04:50:15;;;;;;;;;;;21.20;52.30;;;;;;5151643;27;20038;-68
2022/10/30 04:52:42;;;;;;;;;;;21.20;52.60;;;;;;5149368;27;19915;-68
2022/10/30 04:55:09;;;;;;;;;;;21.20;53.90;;;;;;5124076;27;19927;-66
2022/10/30 04:57:35;;;;;;;;;;;21.20;53.40;;;;;;5141462;27;20314;-67
2022/10/30 05:00:06;;;;;;;;;;;21.20;51.70;;;;;;5146993;27;19919;-68
2022/10/30 05:02:52;;;;;;;;;;;21.20;50.80;;;;;;5138971;27;19961;-69
2022/10/30 05:05:19;;;;;;;;;;;21.10;51.50;;;;;;5143488;27;19917;-68
2022/10/30 05:07:46;;;;;;;;;;;21.00;52.60;;;;;;5128898;27;19914;-69
2022/10/30 05:10:15;;;;;;;;;;;21.00;54.10;;;;;;5124100;27;19918;-67
2022/10/30 05:12:42;;;;;;;;;;;20.90;54.20;;;;;;5152594;27;19911;-67
2022/10/30 05:15:09;;;;;;;;;;;21.00;54.80;;;;;;5149543;27;20296;-67
2022/10/30 05:17:36;;;;;;;;;;;20.90;54.50;;;;;;5107480;27;19972;-67
2022/10/30 05:20:03;;;;;;;;;;;20.90;54.00;;;;;;5131963;27;19922;-68
2022/10/30 05:22:29;;;;;;;;;;;20.90;53.60;;;;;;5131652;27;19918;-68
2022/10/30 05:24:56;;;;;;;;;;;20.90;53.30;;;;;;5132162;27;19923;-68
2022/10/30 05:27:22;;;;;;;;;;;20.90;54.60;;;;;;5131333;27;19912;-68
2022/10/30 05:29:49;;;;;;;;;;;20.90;54.00;;;;;;5129672;27;19907;-67
2022/10/30 05:32:16;;;;;;;;;;;20.80;54.30;;;;;;5131519;27;19918;-68
2022/10/30 05:34:42;;;;;;;;;;;20.80;54.90;;;;;;5132018;27;20364;-67
2022/10/30 05:37:09;;;;;;;;;;;20.80;55.20;;;;;;5131536;27;20369;-68
2022/10/30 05:39:35;;;;;;;;;;;20.80;54.90;;;;;;5103178;27;19960;-68
2022/10/30 05:42:02;;;;;;;;;;;20.80;54.60;;;;;;5132352;27;19907;-68
2022/10/30 05:44:29;;;;;;;;;;;20.80;55.80;;;;;;5131394;27;20005;-67
2022/10/30 05:46:55;;;;;;;;;;;20.80;56.00;;;;;;5114235;27;19965;-68
2022/10/30 05:49:22;;;;;;;;;;;20.90;55.40;;;;;;5124855;27;19981;-68
2022/10/30 05:51:48;;;;;;;;;;;20.80;55.90;;;;;;5131853;27;19971;-67
2022/10/30 05:54:15;;;;;;;;;;;20.80;55.00;;;;;;5130932;27;20026;-70
2022/10/30 05:56:42;;;;;;;;;;;20.80;55.30;;;;;;5131073;27;19927;-68
2022/10/30 05:59:08;;;;;;;;;;;20.80;55.10;;;;;;5125190;27;20278;-69
2022/10/30 06:01:35;;;;;;;;;;;20.70;54.80;;;;;;5131166;27;19914;-69
2022/10/30 06:04:01;;;;;;;;;;;20.70;55.20;;;;;;5131778;27;19954;-70
2022/10/30 06:06:28;;;;;;;;;;;20.70;56.30;;;;;;5123550;27;20316;-69
2022/10/30 06:08:55;;;;;;;;;;;20.70;56.40;;;;;;5131275;27;19922;-69
2022/10/30 06:11:21;;;;;;;;;;;20.70;56.40;;;;;;5130346;27;19923;-68
2022/10/30 06:13:48;;;;;;;;;;;20.60;56.20;;;;;;5116648;27;19912;-67
2022/10/30 06:16:14;;;;;;;;;;;20.50;56.30;;;;;;5138466;27;20364;-68
2022/10/30 06:18:41;;;;;;;;;;;20.50;55.60;;;;;;5140077;27;19927;-68
2022/10/30 06:21:07;;;;;;;;;;;20.50;56.10;;;;;;5128294;27;20006;-68
2022/10/30 06:23:34;;;;;;;;;;;20.50;56.20;;;;;;5131602;27;20293;-67
2022/10/30 06:41:32;;;;;;;;;;;20.50;54.70;;;;;;5104143;27;20420;-68
2022/10/30 06:43:59;;;;;;;;;;;20.50;54.10;;;;;;5109957;28;20003;-68
2022/10/30 06:46:25;;;;;;;;;;;20.40;55.10;;;;;;5109555;28;19912;-68
2022/10/30 06:48:52;;;;;;;;;;;20.40;56.40;;;;;;5105056;28;19925;-66
2022/10/30 06:51:19;;;;;;;;;;;20.40;55.80;;;;;;5098883;27;19980;-66
2022/10/30 06:53:45;;;;;;;;;;;20.40;55.70;;;;;;5109800;28;19911;-66
2022/10/30 06:56:12;;;;;;;;;;;20.40;56.00;;;;;;5109094;28;20412;-71
2022/10/30 06:58:38;;;;;;;;;;;20.40;56.10;;;;;;5109008;28;19955;-68
2022/10/30 07:01:05;;;;;;;;;;;20.40;55.70;;;;;;5109396;28;20381;-68
2022/10/30 07:03:32;;;;;;;;;;;20.40;56.40;;;;;;5090809;28;20317;-68
2022/10/30 07:05:59;;;;;;;;;;;20.30;58.10;;;;;;5097571;27;19983;-67
2022/10/30 07:08:25;;;;;;;;;;;20.30;57.70;;;;;;5108576;28;20366;-68
2022/10/30 07:10:52;;;;;;;;;;;20.30;57.10;;;;;;5108894;28;19998;-68
2022/10/30 07:13:19;;;;;;;;;;;20.30;57.60;;;;;;5109570;28;19965;-68
2022/10/30 07:15:45;;;;;;;;;;;20.30;58.60;;;;;;5130443;28;19911;-67
2022/10/30 07:18:12;;;;;;;;;;;20.20;59.20;;;;;;5112787;28;19955;-67
2022/10/30 07:20:38;;;;;;;;;;;20.30;60.00;;;;;;5128338;28;19964;-67
2022/10/30 07:23:05;;;;;;;;;;;20.30;59.80;;;;;;5130136;28;20373;-67
2022/10/30 07:25:32;;;;;;;;;;;20.30;60.30;;;;;;5130006;28;19918;-68
2022/10/30 07:27:59;;;;;;;;;;;20.30;61.20;;;;;;5122382;28;19918;-68
2022/10/30 07:30:26;;;;;;;;;;;20.30;61.50;;;;;;5106765;28;20006;-69
2022/10/30 07:32:59;;;;;;;;;;;20.20;61.70;;;;;;5111055;28;19918;-68
2022/10/30 07:35:26;;;;;;;;;;;20.20;61.30;;;;;;5129706;28;20361;-68
2022/10/30 07:37:52;;;;;;;;;;;20.10;60.80;;;;;;5119235;28;19922;-67
2022/10/30 07:40:19;;;;;;;;;;;20.10;60.40;;;;;;5136260;27;20041;-68
2022/10/30 07:42:46;;;;;;;;;;;20.00;60.60;;;;;;5123245;27;20326;-68
2022/10/30 07:45:12;;;;;;;;;;;19.90;60.80;;;;;;5154775;27;19952;-67
2022/10/30 07:47:42;;;;;;;;;;;19.90;61.00;;;;;;5152940;27;19911;-67
2022/10/30 07:50:09;;;;;;;;;;;19.80;61.00;;;;;;5133341;27;19915;-68
2022/10/30 07:52:35;;;;;;;;;;;19.80;61.10;;;;;;5155040;27;19962;-67
2022/10/30 07:55:02;;;;;;;;;;;19.80;61.60;;;;;;5139165;27;20399;-67
2022/10/30 07:57:39;;;;;;;;;;;19.80;62.50;;;;;;5111698;27;20381;-67
2022/10/30 08:00:09;;;;;;;;;;;19.80;62.60;;;;;;5137200;27;20373;-68
2022/10/30 08:02:35;;;;;;;;;;;19.80;62.50;;;;;;5155124;27;19962;-68
2022/10/30 08:05:02;;;;;;;;;;;19.80;63.40;;;;;;5150996;27;19919;-68
2022/10/30 08:07:33;;;;;;;;;;;19.80;62.20;;;;;;5137373;27;19911;-67
2022/10/30 08:09:59;;;;;;;;;;;19.70;62.70;;;;;;5142211;27;19911;-67
2022/10/30 08:12:26;;;;;;;;;;;19.70;63.10;;;;;;5145829;27;19911;-67
2022/10/30 08:14:53;;;;;;;;;;;19.60;63.70;;;;;;5109792;27;19911;-68
2022/10/30 08:17:19;;;;;;;;;;;19.60;64.10;;;;;;5152559;27;19919;-67
2022/10/30 08:19:46;;;;;;;;;;;19.50;64.20;;;;;;5129476;27;20435;-68
2022/10/30 08:22:13;;;;;;;;;;;19.50;64.50;;;;;;5147912;27;19964;-67
2022/10/30 08:24:39;;;;;;;;;;;19.50;65.00;;;;;;5131604;27;20022;-68
2022/10/30 08:27:06;;;;;;;;;;;19.50;65.60;;;;;;5151782;27;20293;-66
2022/10/30 08:29:35;;;;;;;;;;;19.50;66.20;;;;;;5151009;27;19907;-66
2022/10/30 08:32:02;;;;;;;;;;;19.40;66.50;;;;;;5153933;27;19920;-67
2022/10/30 08:34:31;;;;;;;;;;;19.30;67.00;;;;;;5153327;27;19956;-68
2022/10/30 08:36:58;;;;;;;;;;;19.30;67.30;;;;;;5153220;27;19919;-67
2022/10/30 08:39:25;;;;;;;;;;;19.30;67.40;;;;;;5148063;27;19958;-66
2022/10/30 08:41:52;;;;;;;;;;;19.30;67.70;;;;;;5147452;27;20002;-67
2022/10/30 08:44:18;;;;;;;;;;;19.30;67.70;;;;;;5133928;27;19918;-66
2022/10/30 08:46:45;;;;;;;;;;;19.30;68.20;;;;;;5123105;27;19943;-68
2022/10/30 08:49:11;;;;;;;;;;;19.30;68.30;;;;;;5121299;27;19926;-68
2022/10/30 08:51:38;;;;;;;;;;;19.30;68.60;;;;;;5131960;27;19954;-69
2022/10/30 08:54:05;;;;;;;;;;;19.30;68.80;;;;;;5132782;27;20373;-67
2022/10/30 08:56:31;;;;;;;;;;;19.20;69.10;;;;;;5132779;27;19927;-67
2022/10/30 08:58:58;;;;;;;;;;;19.30;68.70;;;;;;5131972;27;19962;-66
2022/10/30 09:01:24;;;;;;;;;;;19.30;68.70;;;;;;5130213;27;19968;-67
2022/10/30 09:03:51;;;;;;;;;;;19.20;68.40;;;;;;5132563;27;20300;-68
2022/10/30 09:06:17;;;;;;;;;;;19.20;68.30;;;;;;5122359;27;19915;-67
2022/10/30 09:08:45;;;;;;;;;;;19.20;68.10;;;;;;5131999;27;20284;-66
2022/10/30 09:11:11;;;;;;;;;;;19.20;68.30;;;;;;5128223;27;19911;-66
2022/10/30 09:13:38;;;;;;;;;;;19.20;67.80;;;;;;5138198;27;19938;-66
2022/10/30 09:16:05;;;;;;;;;;;19.30;67.50;;;;;;5131038;27;20017;-66
2022/10/30 09:18:31;;;;;;;;;;;19.30;67.80;;;;;;5137671;27;19921;-65
2022/10/30 09:20:58;;;;;;;;;;;19.20;67.70;;;;;;5116792;27;20006;-67
2022/10/30 09:23:25;;;;;;;;;;;19.20;67.80;;;;;;5130006;27;20222;-66
2022/10/30 09:25:51;;;;;;;;;;;19.20;67.80;;;;;;5118970;27;20278;-67
2022/10/30 09:28:18;;;;;;;;;;;19.20;68.10;;;;;;5134459;27;19943;-67
2022/10/30 09:30:44;;;;;;;;;;;19.20;68.10;;;;;;5125460;27;19998;-66
2022/10/30 09:33:11;;;;;;;;;;;19.20;68.10;;;;;;5132206;27;19911;-67
2022/10/30 09:35:38;;;;;;;;;;;19.20;67.90;;;;;;5134690;27;20064;-66
2022/10/30 09:38:04;;;;;;;;;;;19.20;68.00;;;;;;5134693;27;20277;-67
2022/10/30 09:40:31;;;;;;;;;;;19.20;67.90;;;;;;5127141;27;19939;-66
2022/10/30 09:43:03;;;;;;;;;;;19.20;68.00;;;;;;5128679;27;19911;-66
2022/10/30 09:45:41;;;;;;;;;;;19.10;68.20;;;;;;5134430;27;19907;-67
2022/10/30 09:48:31;;;;;;;;;;;19.20;68.60;;;;;;5134882;27;20384;-66
2022/10/30 09:51:03;;;;;;;;;;;19.20;68.60;;;;;;5124267;27;20417;-66
2022/10/30 09:53:30;;;;;;;;;;;19.20;68.30;;;;;;5120946;27;19958;-66
2022/10/30 09:56:04;;;;;;;;;;;19.20;68.60;;;;;;5134073;27;19915;-67
2022/10/30 09:58:46;;;;;;;;;;;19.20;68.60;;;;;;5115307;27;19916;-66
2022/10/30 10:01:16;;;;;;;;;;;19.20;68.70;;;;;;5124926;27;19919;-66
2022/10/30 10:03:48;;;;;;;;;;;19.20;69.00;;;;;;5113201;27;20353;-66
2022/10/30 10:06:17;;;;;;;;;;;19.10;69.10;;;;;;5134155;27;20269;-66
2022/10/30 10:09:09;;;;;;;;;;;19.20;69.10;;;;;;5115845;27;19907;-66
2022/10/30 10:11:37;;;;;;;;;;;19.20;69.10;;;;;;5117552;27;19955;-67
2022/10/30 10:14:07;;;;;;;;;;;19.20;69.20;;;;;;5136121;27;19907;-66
2022/10/30 10:16:35;;;;;;;;;;;19.20;69.30;;;;;;5136633;27;20276;-66
2022/10/30 10:19:14;;;;;;;;;;;19.20;69.00;;;;;;5154476;27;19971;-66
2022/10/30 10:21:43;;;;;;;;;;;19.20;68.60;;;;;;5132324;27;19911;-67
2022/10/30 10:24:17;;;;;;;;;;;19.20;68.70;;;;;;5138123;27;19923;-66
2022/10/30 10:26:44;;;;;;;;;;;19.20;68.90;;;;;;5135922;27;19915;-67
2022/10/30 10:29:16;;;;;;;;;;;19.20;68.90;;;;;;5154029;27;19942;-66
2022/10/30 10:31:50;;;;;;;;;;;19.10;68.90;;;;;;5139901;27;20369;-66
2022/10/30 10:34:20;;;;;;;;;;;19.10;69.00;;;;;;5131774;27;19907;-66
2022/10/30 10:36:56;;;;;;;;;;;19.00;69.20;;;;;;5126768;27;20017;-66
2022/10/30 10:39:32;;;;;;;;;;;19.10;69.10;;;;;;5151792;27;19975;-67
2022/10/30 10:41:58;;;;;;;;;;;19.10;68.90;;;;;;5143502;27;20003;-66
2022/10/30 10:44:43;;;;;;;;;;;19.10;68.90;;;;;;5151388;27;19961;-66
2022/10/30 10:47:16;;;;;;;;;;;19.10;68.90;;;;;;5143292;27;19964;-66
2022/10/30 10:49:51;;;;;;;;;;;19.10;69.00;;;;;;5153300;27;20274;-66
2022/10/30 10:52:22;;;;;;;;;;;19.20;68.70;;;;;;5131332;27;20003;-66
2022/10/30 10:54:58;;;;;;;;;;;19.20;68.40;;;;;;5138370;27;20373;-66
2022/10/30 10:57:26;;;;;;;;;;;19.10;68.30;;;;;;5135360;27;19938;-67
2022/10/30 10:59:54;;;;;;;;;;;19.10;68.00;;;;;;5136220;27;19934;-67
2022/10/30 11:02:23;;;;;;;;;;;19.00;68.10;;;;;;5145093;27;19908;-66
2022/10/30 11:04:51;;;;;;;;;;;19.10;67.80;;;;;;5151793;27;19970;-66
2022/10/30 11:07:19;;;;;;;;;;;19.00;67.70;;;;;;5153874;27;20321;-67
2022/10/30 11:09:46;;;;;;;;;;;19.10;68.20;;;;;;5128310;27;19914;-66
2022/10/30 11:12:13;;;;;;;;;;;19.00;68.10;;;;;;5132189;27;19918;-66
2022/10/30 11:14:39;;;;;;;;;;;19.00;67.80;;;;;;5135459;27;19956;-66
2022/10/30 11:17:15;;;;;;;;;;;19.00;66.90;;;;;;5153671;27;19927;-66
2022/10/30 11:19:42;;;;;;;;;;;19.00;67.10;;;;;;5153961;27;19907;-66
2022/10/30 11:22:12;;;;;;;;;;;19.10;67.10;;;;;;5134604;27;19912;-67
2022/10/30 11:24:39;;;;;;;;;;;19.10;66.70;;;;;;5124186;27;19907;-67
2022/10/30 11:27:23;;;;;;;;;;;19.00;66.00;;;;;;5153621;27;19908;-66
2022/10/30 11:29:50;;;;;;;;;;;19.00;66.20;;;;;;5154106;27;19914;-66
2022/10/30 11:32:25;;;;;;;;;;;19.00;65.80;;;;;;5151536;27;19915;-66
2022/10/30 11:35:07;;;;;;;;;;;19.00;66.00;;;;;;5148640;27;20418;-66
2022/10/30 11:37:34;;;;;;;;;;;19.00;65.90;;;;;;5153517;27;19915;-66
2022/10/30 11:40:07;;;;;;;;;;;19.00;65.90;;;;;;5150852;27;19923;-66
2022/10/30 11:42:33;;;;;;;;;;;19.00;65.70;;;;;;5146236;27;20272;-66
2022/10/30 11:45:00;;;;;;;;;;;19.00;65.40;;;;;;5153722;27;19907;-66
2022/10/30 11:47:36;;;;;;;;;;;19.00;65.00;;;;;;5132875;27;20305;-67
2022/10/30 11:50:06;;;;;;;;;;;18.90;64.60;;;;;;5153295;27;19921;-66
2022/10/30 11:52:36;;;;;;;;;;;18.90;65.00;;;;;;5141354;27;19908;-66
2022/10/30 11:55:10;;;;;;;;;;;19.00;64.80;;;;;;5126707;27;19968;-66
2022/10/30 11:57:37;;;;;;;;;;;19.00;64.90;;;;;;5150604;27;19928;-66
2022/10/30 12:00:04;;;;;;;;;;;19.00;64.80;;;;;;5153001;27;19930;-66
2022/10/30 12:02:31;;;;;;;;;;;19.00;65.40;;;;;;5133859;27;19964;-66
2022/10/30 12:05:01;;;;;;;;;;;19.00;65.10;;;;;;5133670;27;19929;-67
2022/10/30 12:07:31;;;;;;;;;;;19.00;64.80;;;;;;5130257;27;20026;-67
2022/10/30 12:09:59;;;;;;;;;;;18.90;64.00;;;;;;5149484;27;19959;-67
2022/10/30 12:12:33;;;;;;;;;;;18.90;63.90;;;;;;5142666;27;20276;-66
2022/10/30 12:15:06;;;;;;;;;;;19.00;64.10;;;;;;5146787;27;19907;-67
2022/10/30 12:17:33;;;;;;;;;;;19.00;64.50;;;;;;5134732;27;20456;-66
2022/10/30 12:20:04;;;;;;;;;;;18.90;64.30;;;;;;5134617;27;20038;-66
2022/10/30 12:22:31;;;;;;;;;;;18.90;63.60;;;;;;5130327;27;19915;-66
2022/10/30 12:24:59;;;;;;;;;;;19.00;63.30;;;;;;5125001;27;19955;-65
2022/10/30 12:27:25;;;;;;;;;;;19.00;63.20;;;;;;5138183;27;19947;-66
2022/10/30 12:29:58;;;;;;;;;;;19.00;63.20;;;;;;5138207;27;20288;-66
2022/10/30 12:32:25;;;;;;;;;;;19.00;63.20;;;;;;5140798;27;20006;-66
2022/10/30 12:35:24;;;;;;;;;;;18.90;63.60;;;;;;5130505;27;19922;-66
2022/10/30 12:37:52;;;;;;;;;;;18.90;63.20;;;;;;5099751;27;19944;-66
2022/10/30 12:40:18;;;;;;;;;;;18.90;63.00;;;;;;5126244;27;19919;-67
2022/10/30 12:42:48;;;;;;;;;;;18.90;63.20;;;;;;5156408;27;20067;-67
2022/10/30 12:45:18;;;;;;;;;;;18.90;63.30;;;;;;5129337;27;19907;-66
2022/10/30 12:47:45;;;;;;;;;;;18.90;63.90;;;;;;5151069;27;20028;-66
2022/10/30 12:50:27;;;;;;;;;;;18.90;63.90;;;;;;5134281;27;19915;-66
2022/10/30 12:52:56;;;;;;;;;;;18.90;64.10;;;;;;5155940;27;19930;-66
2022/10/30 12:55:22;;;;;;;;;;;18.90;64.60;;;;;;5134701;27;19907;-66
2022/10/30 12:57:52;;;;;;;;;;;18.90;64.70;;;;;;5129166;27;20411;-66
2022/10/30 13:00:18;;;;;;;;;;;18.90;65.10;;;;;;5156403;27;19994;-66
2022/10/30 13:03:03;;;;;;;;;;;18.90;65.80;;;;;;5156173;27;19919;-66
2022/10/30 13:05:39;;;;;;;;;;;18.90;65.80;;;;;;5129970;27;20388;-66
2022/10/30 13:08:25;;;;;;;;;;;18.90;65.90;;;;;;5156012;27;19907;-66
2022/10/30 13:10:52;;;;;;;;;;;18.90;66.00;;;;;;5134460;27;19912;-66
2022/10/30 13:13:27;;;;;;;;;;;18.90;66.00;;;;;;5155885;27;19953;-66
2022/10/30 13:15:57;;;;;;;;;;;18.90;66.40;;;;;;5141691;27;20017;-66
2022/10/30 13:18:25;;;;;;;;;;;18.80;66.30;;;;;;5123673;27;20002;-66
2022/10/30 13:21:03;;;;;;;;;;;18.80;66.90;;;;;;5155498;27;19915;-66
2022/10/30 13:23:33;;;;;;;;;;;18.80;67.20;;;;;;5129958;27;19917;-66
2022/10/30 13:25:59;;;;;;;;;;;18.80;67.40;;;;;;5126660;27;19907;-66
2022/10/30 13:28:32;;;;;;;;;;;18.80;67.40;;;;;;5150854;27;20043;-66
2022/10/30 13:31:20;;;;;;;;;;;18.80;67.60;;;;;;5136534;27;19907;-66
2022/10/30 13:33:59;;;;;;;;;;;18.80;67.60;;;;;;5148290;27;20322;-66
2022/10/30 13:36:26;;;;;;;;;;;18.80;67.50;;;;;;5141820;27;20339;-66
2022/10/30 13:38:56;;;;;;;;;;;18.80;68.20;;;;;;5154855;27;19911;-66
2022/10/30 13:41:36;;;;;;;;;;;18.80;68.20;;;;;;5137183;27;19922;-66
2022/10/30 13:44:02;;;;;;;;;;;18.80;68.20;;;;;;5111526;27;19915;-66
2022/10/30 13:46:46;;;;;;;;;;;18.80;68.30;;;;;;5140391;27;19907;-66
2022/10/30 13:49:12;;;;;;;;;;;18.80;68.30;;;;;;5136307;27;20354;-66
2022/10/30 13:52:02;;;;;;;;;;;18.80;68.50;;;;;;5155114;27;19907;-66
2022/10/30 13:55:00;;;;;;;;;;;18.70;68.70;;;;;;5139915;27;19908;-66
2022/10/30 13:57:36;;;;;;;;;;;18.80;69.10;;;;;;5079035;28;20448;-66
2022/10/30 14:00:13;;;;;;;;;;;18.80;69.10;;;;;;5117112;27;19912;-66
2022/10/30 14:02:42;;;;;;;;;;;18.70;69.00;;;;;;5124226;27;19966;-66
2022/10/30 14:05:12;;;;;;;;;;;18.70;69.00;;;;;;5121816;27;20286;-66
2022/10/30 14:07:44;;;;;;;;;;;18.70;69.20;;;;;;5147942;27;19907;-66
2022/10/30 14:10:22;;;;;;;;;;;18.70;69.20;;;;;;5150089;27;19907;-66
2022/10/30 14:13:04;;;;;;;;;;;18.70;69.30;;;;;;5153977;27;19939;-65
2022/10/30 14:15:40;;;;;;;;;;;18.70;69.70;;;;;;5131702;27;19915;-66
2022/10/30 14:18:12;;;;;;;;;;;18.70;69.30;;;;;;5154822;27;19907;-66
2022/10/30 14:20:48;;;;;;;;;;;18.70;69.50;;;;;;5143602;27;19997;-66
2022/10/30 14:23:24;;;;;;;;;;;18.70;69.60;;;;;;5137970;27;19934;-66
2022/10/30 14:26:03;;;;;;;;;;;18.70;69.60;;;;;;5124866;27;19922;-65
2022/10/30 14:28:30;;;;;;;;;;;18.70;69.70;;;;;;5142725;27;19929;-66
2022/10/30 14:31:03;;;;;;;;;;;18.70;69.90;;;;;;5136616;27;19915;-66
2022/10/30 14:33:39;;;;;;;;;;;18.70;69.70;;;;;;5135993;27;19908;-66
2022/10/30 14:36:16;;;;;;;;;;;18.70;69.70;;;;;;5134468;27;19935;-66
2022/10/30 14:38:50;;;;;;;;;;;18.70;70.00;;;;;;5139450;27;19918;-66
2022/10/30 14:41:21;;;;;;;;;;;18.70;69.80;;;;;;5131664;27;19926;-66
2022/10/30 14:43:51;;;;;;;;;;;18.70;70.20;;;;;;5135579;27;19907;-66
2022/10/30 14:46:36;;;;;;;;;;;18.70;69.90;;;;;;5144000;27;19908;-66
2022/10/30 14:49:09;;;;;;;;;;;18.70;70.00;;;;;;5154269;27;19903;-66
2022/10/30 14:51:36;;;;;;;;;;;18.70;70.20;;;;;;5106787;27;19911;-66
2022/10/30 14:54:05;;;;;;;;;;;18.60;70.30;;;;;;5127995;27;19919;-67
2022/10/30 14:56:40;;;;;;;;;;;18.60;69.90;;;;;;5127229;27;19915;-66
2022/10/30 14:59:20;;;;;;;;;;;18.60;70.00;;;;;;5128099;27;20275;-66
2022/10/30 15:01:51;;;;;;;;;;;18.60;70.00;;;;;;5133328;27;19915;-66
2022/10/30 15:04:36;;;;;;;;;;;18.60;70.00;;;;;;5128711;27;20294;-66
2022/10/30 15:07:08;;;;;;;;;;;18.60;70.10;;;;;;5128887;27;19929;-66
2022/10/30 15:09:51;;;;;;;;;;;18.60;69.90;;;;;;5146838;27;20015;-66
2022/10/30 15:12:36;;;;;;;;;;;18.60;69.70;;;;;;5153477;27;20337;-66
2022/10/30 15:15:04;;;;;;;;;;;18.70;69.60;;;;;;5140563;27;19913;-66
2022/10/30 15:17:37;;;;;;;;;;;18.60;69.90;;;;;;5115755;27;19927;-67
2022/10/30 15:20:04;;;;;;;;;;;18.60;69.90;;;;;;5153666;27;19930;-66